RA73520 BIAR-CYQX
Flight info
| Callsign | RA73520 |
|---|---|
| Flight time | N/A |
| Altitude | 36000 |
| Route | M078F360 ASKUR DCT EL DCT H6230/M078F380 DCT H6134 DCT H5940 DCT H5745 DCT 5550N DCT TUDEP/N0454F380 DCT KEKDA |
| Aircraft | B737/M-SDE2E3FGHIRWXY/LB1 |
Departure
| Time | 2026-05-04 07:38 |
|---|---|
| Airport | Akureyri International Airport (BIAR) |
Arrival
| Time | N/A |
|---|---|
| Airport | Gander International Airport (CYQX) |
| Time | Latitude | Longitude | Altitude | Speed | Heading |
|---|---|---|---|---|---|
| 2026-05-04 07:14 | 65.65489 | -18.07488 | 20 ft | 0 kts | 354° |
| 2026-05-04 07:27 | 65.65501 | -18.07482 | 20 ft | 3 kts | 26° |
| 2026-05-04 07:27 | 65.65500 | -18.07455 | 21 ft | 3 kts | 97° |
| 2026-05-04 07:28 | 65.65492 | -18.07423 | 20 ft | 3 kts | 132° |
| 2026-05-04 07:28 | 65.65479 | -18.07394 | 21 ft | 3 kts | 127° |
| 2026-05-04 07:28 | 65.65478 | -18.07356 | 21 ft | 1 kts | 85° |
| 2026-05-04 07:33 | 65.65284 | -18.07133 | 20 ft | 14 kts | 175° |
| 2026-05-04 07:33 | 65.65178 | -18.07113 | 22 ft | 17 kts | 175° |
| 2026-05-04 07:33 | 65.65055 | -18.07090 | 21 ft | 19 kts | 175° |
| 2026-05-04 07:33 | 65.64964 | -18.07073 | 21 ft | 20 kts | 175° |
| 2026-05-04 07:34 | 65.64830 | -18.07048 | 21 ft | 19 kts | 175° |
| 2026-05-04 07:34 | 65.64705 | -18.07024 | 21 ft | 15 kts | 176° |
| 2026-05-04 07:34 | 65.64623 | -18.07009 | 21 ft | 10 kts | 175° |
| 2026-05-04 07:34 | 65.64555 | -18.06996 | 21 ft | 10 kts | 175° |
| 2026-05-04 07:35 | 65.64509 | -18.07016 | 21 ft | 5 kts | 204° |
| 2026-05-04 07:35 | 65.64485 | -18.07021 | 22 ft | 3 kts | 139° |
| 2026-05-04 07:35 | 65.64497 | -18.06989 | 21 ft | 3 kts | 19° |
| 2026-05-04 07:35 | 65.64517 | -18.06989 | 23 ft | 3 kts | 355° |
| 2026-05-04 07:36 | 65.64542 | -18.06993 | 21 ft | 7 kts | 356° |
| 2026-05-04 07:36 | 65.64715 | -18.07026 | 22 ft | 58 kts | 355° |
| 2026-05-04 07:38 | 65.71461 | -18.07040 | 3238 ft | 163 kts | 46° |
| 2026-05-04 07:38 | 65.71796 | -18.04393 | 3718 ft | 175 kts | 99° |
| 2026-05-04 07:38 | 65.71109 | -18.01933 | 4186 ft | 186 kts | 148° |
| 2026-05-04 07:38 | 65.69951 | -18.00554 | 4828 ft | 186 kts | 155° |
| 2026-05-04 07:39 | 65.68753 | -17.99377 | 5428 ft | 187 kts | 159° |
| 2026-05-04 07:39 | 65.67524 | -17.98254 | 5937 ft | 189 kts | 159° |
| 2026-05-04 07:39 | 65.66277 | -17.97171 | 6403 ft | 198 kts | 160° |
| 2026-05-04 07:39 | 65.64901 | -17.96020 | 6598 ft | 219 kts | 161° |
| 2026-05-04 07:40 | 65.63392 | -17.94787 | 6753 ft | 241 kts | 161° |
| 2026-05-04 07:40 | 65.61717 | -17.93446 | 6854 ft | 267 kts | 162° |
| 2026-05-04 07:40 | 65.59831 | -17.93114 | 7242 ft | 280 kts | 192° |
| 2026-05-04 07:40 | 65.57902 | -17.94147 | 7998 ft | 285 kts | 194° |
| 2026-05-04 07:41 | 65.55966 | -17.95170 | 8959 ft | 287 kts | 193° |
| 2026-05-04 07:41 | 65.53990 | -17.96130 | 9857 ft | 291 kts | 193° |
| 2026-05-04 07:41 | 65.51997 | -17.97127 | 10671 ft | 297 kts | 199° |
| 2026-05-04 07:41 | 65.50153 | -17.99627 | 10913 ft | 316 kts | 224° |
| 2026-05-04 07:42 | 65.48493 | -18.03376 | 11193 ft | 338 kts | 227° |
| 2026-05-04 07:42 | 65.46782 | -18.07394 | 11842 ft | 348 kts | 227° |
| 2026-05-04 07:42 | 65.45041 | -18.11485 | 12686 ft | 352 kts | 227° |
| 2026-05-04 07:42 | 65.43274 | -18.15604 | 13642 ft | 355 kts | 227° |
| 2026-05-04 07:43 | 65.41491 | -18.19728 | 14484 ft | 359 kts | 227° |
| 2026-05-04 07:43 | 65.39679 | -18.23890 | 15338 ft | 363 kts | 228° |
| 2026-05-04 07:43 | 65.37841 | -18.28091 | 16214 ft | 366 kts | 229° |
| 2026-05-04 07:43 | 65.35985 | -18.32314 | 17042 ft | 370 kts | 229° |
| 2026-05-04 07:44 | 65.34104 | -18.36584 | 17927 ft | 373 kts | 230° |
| 2026-05-04 07:44 | 65.32209 | -18.40875 | 18710 ft | 377 kts | 230° |
| 2026-05-04 07:44 | 65.30298 | -18.45196 | 19431 ft | 380 kts | 231° |
| 2026-05-04 07:44 | 65.28373 | -18.49532 | 20229 ft | 380 kts | 232° |
| 2026-05-04 07:45 | 65.26443 | -18.53874 | 21024 ft | 382 kts | 232° |
| 2026-05-04 07:45 | 65.24505 | -18.58223 | 21795 ft | 380 kts | 234° |
| 2026-05-04 07:45 | 65.22589 | -18.62509 | 22731 ft | 378 kts | 236° |
| 2026-05-04 07:45 | 65.20660 | -18.66833 | 23358 ft | 383 kts | 236° |
| 2026-05-04 07:46 | 65.18758 | -18.71291 | 23883 ft | 381 kts | 240° |
| 2026-05-04 07:46 | 65.17042 | -18.76055 | 24430 ft | 379 kts | 243° |
| 2026-05-04 07:46 | 65.15399 | -18.80969 | 24941 ft | 381 kts | 244° |
| 2026-05-04 07:46 | 65.13764 | -18.85961 | 25427 ft | 384 kts | 244° |
| 2026-05-04 07:47 | 65.12114 | -18.90983 | 25895 ft | 388 kts | 244° |
| 2026-05-04 07:47 | 65.10434 | -18.96038 | 26387 ft | 392 kts | 243° |
| 2026-05-04 07:47 | 65.08722 | -19.01127 | 26849 ft | 396 kts | 243° |
| 2026-05-04 07:49 | 64.96249 | -19.37311 | 30021 ft | 410 kts | 243° |
| 2026-05-04 07:49 | 64.94435 | -19.42518 | 30420 ft | 411 kts | 243° |
| 2026-05-04 07:49 | 64.92623 | -19.47704 | 30825 ft | 410 kts | 242° |
| 2026-05-04 07:50 | 64.90802 | -19.52899 | 31209 ft | 411 kts | 242° |
| 2026-05-04 07:50 | 64.88980 | -19.58092 | 31565 ft | 411 kts | 241° |
| 2026-05-04 07:50 | 64.87154 | -19.63284 | 31932 ft | 412 kts | 241° |
| 2026-05-04 07:50 | 64.85324 | -19.68471 | 32300 ft | 412 kts | 240° |
| 2026-05-04 07:51 | 64.83472 | -19.73712 | 32665 ft | 412 kts | 240° |
| 2026-05-04 07:51 | 64.81634 | -19.78901 | 32994 ft | 413 kts | 240° |
| 2026-05-04 07:51 | 64.79793 | -19.84087 | 33304 ft | 414 kts | 239° |
| 2026-05-04 07:51 | 64.77953 | -19.89256 | 33633 ft | 413 kts | 239° |
| 2026-05-04 07:52 | 64.76117 | -19.94394 | 34111 ft | 409 kts | 239° |
| 2026-05-04 07:52 | 64.74288 | -19.99505 | 34376 ft | 410 kts | 239° |
| 2026-05-04 07:52 | 64.72450 | -20.04644 | 34537 ft | 413 kts | 239° |
| 2026-05-04 07:52 | 64.70596 | -20.09814 | 34743 ft | 415 kts | 239° |
| 2026-05-04 07:53 | 64.68738 | -20.14977 | 35022 ft | 415 kts | 238° |